Hovedside
METAR-TAF:

METAR-TAF

Lufthavner :

Åbo lufthavn

Åbo, Finland

breddegrad: 60-31N, lengdegrad: 022-16E, høyde over havet: 49 m

Gjeldene værobservasjon

Denne rapporten ble laget for 26 minutter siden, klokken 18:20 UTC
Vind 3 kt fra Øst
Temperatur -1°C
Luftfuktighet 86%
Trykk 1038 hPa
Sikt 10 km eller mer

METAR: EFTU 191820Z AUTO 09003KT 9999 OVC017/// M01/M03 Q1038

Tid: 20:46 (18:46 UTC)

Varsel

Denne rapporten ble laget for 1 time og 21 minutter siden, klokken 17:25 UTC
Varsel gyldig fra 19. klokken 18 UTC til 20. klokken 18 UTC
Vind 2 kt fra skiftende retning
Sikt 10 km eller mer
Brutte skyer i en høyde av 1800 ft

TAF: EFTU 191725Z 1918/2018 VRB02KT 9999 BKN018

Værobservasjoner og værvarsel for over 4000 flyplasser (METAR- og TAF-rapporter).

Tilgjengelige stasjoner er representert av de røde og gule prikkene på kartet.

Hold musepekeren over prikken for å se navnet på stasjonen.

Klikk så for å se værobservasjoner og -varsler.

For å forandre kartet kan du klikke på den grønne knappen med svart kryss for å zoome inn, på den grønne knappen med strek for å zoome ut, eller på de grønne pilene for å se tilstøtende kart.


METAR-TAF: